Sierra Nevada Aquatic Research Lab (SNARL) Reserve, California Weather observations

Data are for 10 minute period ending at time listed.
 Day   Time   Solar   Ave.   Ave.  Ave.  Vector  Max.   Baro.   Total    
  of    of     Rad.   Air    Rel.  Wind   Wind   Wind  Press.  Precip.   
Year   Day            Temp.  Hum.  Speed  Dir.   Gust                    
2017   (PST)  Kw/m2    F      %     mph   deg.    mph    mb.     in.     
-------------------------------------------------------------------------
 293    0:00   0.00   53.0    28   38.1   208    59.3   775.7    0.00 
 293    0:10   0.00   53.4    28   43.5   204    62.2   775.8    0.00 
 293    0:20   0.00   53.2    29   42.3   206    60.1   775.8    0.00 
 293    0:30   0.00   53.1    30   40.5   211    59.3   776.0    0.00 
 293    0:40   0.00   52.9    31   39.2   216    58.7   776.4    0.00 
 293    0:50   0.00   52.1    32   37.8   217    57.2   776.8    0.00 
 293    1:00   0.00   51.2    35   31.6   213    54.9   777.1    0.00 
 293    1:10   0.00   50.3    38   30.4   216    47.9   777.1    0.00 
 293    1:20   0.00   50.0    38   30.5   218    43.1   776.9    0.00 
 293    1:30   0.00   49.8    38   31.9   218    54.3   776.9    0.00 
 293    1:40   0.00   49.4    40   26.1   222    42.4   776.9    0.00 
 293    1:50   0.00   49.2    40   24.3   223    36.0   776.9    0.00 
 293    2:00   0.00   49.0    40   24.1   227    38.5   776.9    0.00 
 293    2:10   0.00   48.9    40   25.8   222    39.8   776.6    0.00 
 293    2:20   0.00   48.7    39   20.6   230    36.5   776.7    0.00 
 293    2:30   0.00   48.2    40   21.7   227    40.0   777.0    0.00 
 293    2:40   0.00   47.8    41   19.2   226    36.4   777.1    0.00 
 293    2:50   0.00   47.7    41   26.0   219    39.5   777.3    0.00 
 293    3:00   0.00   47.7    39   18.5   229    41.4   777.3    0.00 
 293    3:10   0.00   47.5    41   18.6   212    34.3   777.2    0.00 
 293    3:20   0.00   46.9    44   21.6   227    41.1   777.2    0.00 
 293    3:30   0.00   46.3    46   16.6   218    33.5   777.0    0.00 
 293    3:40   0.00   46.4    45   18.1   229    38.4   776.7    0.00 
 293    3:50   0.00   46.8    45   14.8   230    28.4   776.7    0.00 
 293    4:00   0.00   45.8    50   13.8   246    30.1   776.8    0.00 
 293    4:10   0.00   45.5    52   15.4   246    26.2   777.0    0.00 
 293    4:20   0.00   44.1    59   14.8   237    28.4   777.1    0.00 
 293    4:30   0.00   43.2    62   15.7   226    36.3   777.2    0.00 
 293    4:40   0.00   43.3    60   18.0   234    32.9   777.2    0.00 
 293    4:50   0.00   43.5    58   16.5   224    27.2   777.1    0.00 
 293    5:00   0.00   43.4    60   16.1   242    34.3   777.4    0.01 
 293    5:10   0.00   43.6    57   14.4   245    35.3   777.4    0.00 
 293    5:20   0.00   43.2    59   10.5   264    28.4   777.5    0.00 
 293    5:30   0.00   41.8    63   13.4   259    23.1   777.4    0.00 
 293    5:40   0.00   41.8    63   14.3   235    30.6   777.4    0.00 
 293    5:50   0.00   41.1    68   16.1   239    25.1   777.6    0.00 
 293    6:00   0.00   40.6    68   10.9   252    20.3   777.6    0.00 
 293    6:10   0.00   41.1    67   14.2   231    26.2   777.9    0.01 
 293    6:20   0.01   40.6    67   11.0   242    21.0   777.7    0.00 
 293    6:30   0.02   41.1    61   11.4   246    28.4   777.1    0.00 
 293    6:40   0.03   42.3    57   15.8   219    32.5   777.2    0.00 
 293    6:50   0.01   42.6    53   21.5   230    40.7   777.5    0.00 
 293    7:00   0.03   43.5    48   23.4   219    37.7   777.4    0.00 
 293    7:10   0.11   44.1    45   23.3   212    40.8   777.2    0.00 
 293    7:20   0.20   43.3    52   21.0   227    46.2   777.3    0.00 
 293    7:30   0.24   45.3    39   30.6   210    54.0   776.9    0.00 
 293    7:40   0.31   46.0    37   28.7   207    48.3   776.9    0.00 
 293    7:50   0.33   45.2    44   29.5   212    44.6   777.2    0.00 
 293    8:00   0.30   44.2    46   18.4   222    37.3   777.5    0.00 
 293    8:10   0.37   46.4    37   24.5   219    43.5   777.6    0.00 
 293    8:20   0.40   46.4    30   25.2   209    49.2   777.9    0.00 
 293    8:30   0.38   47.3    28   16.1   216    34.7   778.3    0.00 
 293    8:40   0.30   47.9    26   11.2   215    30.1   778.3    0.00 
 293    8:50   0.38   48.9    27   11.5   184    28.5   778.2    0.00 
 293    9:00   0.44   48.9    31    6.9    40    16.7   778.1    0.00 
 293    9:10   0.49   47.5    40   10.0    17    25.0   778.5    0.00 
 293    9:20   0.41   47.1    37   10.3    16    25.4   778.6    0.00 
 293    9:30   0.51   47.7    35    8.9   342    21.3   778.9    0.00 
 293    9:40   0.57   49.7    26    5.7   278    25.8   779.1    0.00 
 293    9:50   0.53   49.4    23   14.4   200    31.4   779.3    0.00 
 293   10:00   0.64   49.5    24   16.9   215    28.5   779.1    0.00 
 293   10:10   0.61   49.6    22   14.8   226    25.2   779.0    0.00 
 293   10:20   0.65   49.5    28    9.4   273    27.8   779.2    0.00 
 293   10:30   0.69   49.0    34   12.4   296    25.7   779.0    0.00 
 293   10:40   0.67   49.2    35   11.5   289    22.5   779.1    0.00 
 293   10:50   0.67   49.0    33   14.3   302    24.8   779.0    0.00 
 293   11:00   0.67   49.7    27   14.9   288    24.5   779.0    0.00 
 293   11:10   0.66   51.0    19   15.1   273    27.3   779.1    0.00 
 293   11:20   0.73   51.8    16   14.2   271    24.3   779.1    0.00 
 293   11:30   0.67   51.7    16   17.8   279    33.1   779.0    0.00 
 293   11:40   0.76   51.6    15   16.6   271    27.2   778.8    0.00 
 293   11:50   0.69   52.3    16   15.6   266    27.8   778.9    0.00 
 293   12:00   0.73   51.6    12   16.0   284    31.6   779.0    0.00 
 293   12:10   0.74   52.2    13   16.5   276    30.3   779.2    0.00 
 293   12:20   0.68   52.0    13   16.6   271    28.6   779.0    0.00 
 293   12:30   0.73   51.8    14   19.9   258    32.0   778.9    0.00 
 293   12:40   0.71   52.1    13   15.2   258    30.8   779.0    0.00 
 293   12:50   0.70   53.2    13   11.0   263    17.8   779.1    0.00 
 293   13:00   0.69   52.8    13   13.1   284    26.9   778.8    0.00 
 293   13:10   0.53   51.6    12   13.5   278    24.5   778.9    0.00 
 293   13:20   0.63   51.6    14   15.0   293    25.7   779.0    0.00 
 293   13:30   0.59   51.9    14   14.2   283    25.4   779.0    0.00 
 293   13:40   0.56   51.6    14   14.7   282    26.6   779.2    0.00 
 293   13:50   0.57   52.3    13   13.7   281    26.7   779.3    0.00 
 293   14:00   0.40   51.1    14   13.0   288    24.3   779.3    0.00 
 293   14:10   0.56   51.2    14   13.0   270    23.6   779.2    0.00 
 293   14:20   0.52   52.2    14   13.5   268    22.0   779.2    0.00 
 293   14:30   0.26   51.6    14   12.2   250    21.0   779.2    0.00 
 293   14:40   0.38   50.6    16   11.3   247    23.3   779.2    0.00 
 293   14:50   0.31   51.5    16    8.4   258    15.9   779.5    0.00 
 293   15:00   0.25   50.7    17    9.1   287    15.2   779.5    0.00 
 293   15:10   0.24   50.1    18    8.3   293    15.4   779.3    0.00 
 293   15:20   0.16   49.2    19    9.7   306    17.6   779.5    0.00 
 293   15:30   0.21   48.2    22   11.3   312    21.0   779.6    0.00 
 293   15:40   0.16   48.2    24   10.8   310    21.5   779.6    0.00 
 293   15:50   0.09   46.6    28   10.5   324    19.4   779.6    0.00 
 293   16:00   0.10   46.3    29   10.2   316    17.5   779.7    0.00 
 293   16:10   0.07   45.4    32   10.3   316    16.0   779.8    0.00 
 293   16:20   0.06   44.4    36    9.7   320    18.1   780.1    0.00 
 293   16:30   0.06   43.6    37   10.0   318    17.7   780.1    0.00 
 293   16:40   0.06   43.2    38   11.3   318    22.1   780.1    0.00 
 293   16:50   0.03   42.5    38    7.7   303    15.1   780.2    0.00 
 293   17:00   0.00   41.5    39    5.5   282    11.4   780.6    0.00 
 293   17:10   0.00   40.8    40    5.0   266    10.8   780.6    0.00 
 293   17:20   0.00   40.5    40    5.0   263     8.0   780.9    0.00 
 293   17:30   0.00   40.1    43    7.7   261    13.4   781.0    0.00 
 293   17:40   0.00   39.9    45    5.8   281    12.1   781.3    0.00 
 293   17:50   0.00   39.7    44    5.4   281     9.0   781.4    0.00 
 293   18:00   0.00   38.7    45    5.3   289     7.5   781.4    0.00 
 293   18:10   0.00   38.3    45    6.9   262    12.2   781.5    0.00 
 293   18:20   0.00   38.2    47    4.2   284     8.5   781.6    0.00 
 293   18:30   0.00   38.0    49    8.0   260    12.0   781.8    0.00 
 293   18:40   0.00   37.9    51    8.8   257    13.2   781.9    0.00 
 293   18:50   0.00   37.7    51    6.6   270    10.2   782.0    0.00 
 293   19:00   0.00   37.3    51    7.0   267    10.8   782.1    0.00 
 293   19:10   0.00   36.6    51    7.2   262    11.0   782.2    0.00 
 293   19:20   0.00   36.2    50    6.9   262    10.1   782.0    0.00 
 293   19:30   0.00   35.8    49    6.5   263    10.7   781.9    0.00 
 293   19:40   0.00   34.9    51    4.5   275     7.5   781.9    0.00 
 293   19:50   0.00   33.3    55    7.1   252     9.8   782.1    0.00 
 293   20:00   0.00   33.5    57    5.6   242     9.9   782.2    0.00 
 293   20:10   0.00   33.8    57    4.4   248     9.3   782.0    0.00 
 293   20:20   0.00   32.7    57    8.3   254    11.5   782.0    0.00 
 293   20:30   0.00   33.5    55    6.8   254     9.7   782.1    0.00 
 293   20:40   0.00   33.5    53    5.1   267     7.8   782.4    0.00 
 293   20:50   0.00   32.3    53    4.3   200     6.0   782.7    0.00 
 293   21:00   0.00   29.4    56    6.4   233     9.1   782.9    0.00 
 293   21:10   0.00   29.4    57    8.2   247    10.3   782.9    0.00 
 293   21:20   0.00   31.5    54    9.7   242    12.5   782.9    0.00 
 293   21:30   0.00   32.7    50    9.4   253    13.4   782.9    0.00 
 293   21:40   0.00   32.9    49    8.9   250    12.8   782.9    0.00 
 293   21:50   0.00   32.4    50    7.5   249    10.0   783.0    0.00 
 293   22:00   0.00   31.6    51    3.9   249     6.8   783.0    0.00 
 293   22:10   0.00   30.1    53    6.8   254    11.8   783.0    0.00 
 293   22:20   0.00   30.7    53    7.0   259    10.7   783.2    0.00 
 293   22:30   0.00   30.6    54    5.5   264     9.5   783.2    0.00 
 293   22:40   0.00   30.6    54    7.4   258    10.5   783.3    0.00 
 293   22:50   0.00   31.1    53    8.8   261    13.3   783.5    0.00 
 293   23:00   0.00   31.6    52    7.8   249    11.2   783.6    0.00 
 293   23:10   0.00   31.5    52    8.4   247    12.4   783.8    0.00 
 293   23:20   0.00   31.7    52    7.8   246    13.4   783.9    0.00 
 293   23:30   0.00   32.1    52    9.1   240    14.7   783.9    0.00 
 293   23:40   0.00   31.7    52   10.8   251    15.8   783.9    0.00 
 293   23:50   0.00   31.8    52    9.4   250    14.9   783.9    0.00 

Return to SNARL Reserve graphs page.


Western Regional Climate Center,wrcc@dri.edu